Time;durP1;ratioP1;P1;durP2;ratioP2;P2;SDS_P1;SDS_P2;PMS_P1;PMS_P2;Temp;Humidity;BMP_temperature;BMP_pressure;BME280_temperature;BME280_humidity;BME280_pressure;Samples;Min_cycle;Max_cycle;Signal;HPM_P1;HPM_P2
2022/01/03 00:00:10;;;;;;;;;4.25;2.75;;;;;13.38;61.84;101152.16;5035381;28;45253;-62
2022/01/03 00:02:36;;;;;;;;;5.00;2.00;;;;;13.39;61.84;101151.19;5052192;28;45402;-64
2022/01/03 00:05:02;;;;;;;;;5.00;3.00;;;;;13.39;61.90;101147.72;5035360;28;45352;-62
2022/01/03 00:07:28;;;;;;;;;4.25;3.25;;;;;13.38;62.08;101153.97;5036448;28;45455;-65
2022/01/03 00:09:53;;;;;;;;;5.25;3.00;;;;;13.37;61.99;101158.41;5051968;28;45467;-63
2022/01/03 00:12:21;;;;;;;;;5.50;2.00;;;;;13.36;62.34;101162.00;5035539;28;66386;-63
2022/01/03 00:14:48;;;;;;;;;3.50;1.00;;;;;13.34;62.08;101163.97;5036570;28;45832;-67
2022/01/03 00:17:14;;;;;;;;;5.25;4.25;;;;;13.34;61.93;101158.69;5035065;28;45422;-62
2022/01/03 00:19:39;;;;;;;;;7.25;3.00;;;;;13.33;61.63;101163.13;5035347;28;68264;-63
2022/01/03 00:22:06;;;;;;;;;4.00;1.00;;;;;13.34;61.72;101148.13;5036329;28;45178;-65
2022/01/03 00:24:32;;;;;;;;;10.75;7.00;;;;;13.33;62.16;101162.28;5036265;28;45232;-62
2022/01/03 00:27:03;;;;;;;;;4.75;4.00;;;;;13.31;61.99;101151.88;5036183;28;45375;-65
2022/01/03 00:29:31;;;;;;;;;4.25;2.50;;;;;13.30;62.20;101162.56;5036087;28;45749;-64
2022/01/03 00:31:57;;;;;;;;;3.75;1.50;;;;;13.29;62.09;101160.91;5035036;28;45432;-65
2022/01/03 00:34:23;;;;;;;;;5.75;2.50;;;;;13.28;61.62;101169.78;5036166;28;45521;-64
2022/01/03 00:36:49;;;;;;;;;3.75;2.00;;;;;13.26;62.01;101153.25;5051524;28;46467;-65
2022/01/03 00:39:14;;;;;;;;;2.00;2.00;;;;;13.24;61.59;101165.78;5034692;28;47899;-63
2022/01/03 00:41:41;;;;;;;;;2.50;2.50;;;;;13.22;62.15;101160.63;5036155;28;45429;-63
2022/01/03 00:44:07;;;;;;;;;5.50;3.75;;;;;13.22;61.85;101171.19;5051607;28;45505;-63
2022/01/03 00:46:33;;;;;;;;;3.00;2.00;;;;;13.19;61.57;101168.81;5033620;28;72653;-64
2022/01/03 00:48:59;;;;;;;;;4.75;1.75;;;;;13.17;62.11;101174.25;5035893;28;45665;-64
2022/01/03 00:51:25;;;;;;;;;8.00;3.75;;;;;13.17;62.10;101178.69;5051474;28;45251;-64
2022/01/03 00:53:51;;;;;;;;;3.75;3.00;;;;;13.15;62.26;101181.47;5037600;28;45227;-63
2022/01/03 00:56:25;;;;;;;;;7.00;4.50;;;;;13.13;62.10;101177.28;5039296;28;46468;-64
2022/01/03 00:59:15;;;;;;;;;6.00;3.00;;;;;13.11;61.88;101166.88;5039445;28;45792;-63
2022/01/03 01:01:51;;;;;;;;;2.25;1.25;;;;;13.11;62.06;101161.59;5054129;28;45358;-64
2022/01/03 01:04:18;;;;;;;;;8.50;2.00;;;;;13.09;62.37;101171.44;5054991;28;45488;-62
2022/01/03 01:06:43;;;;;;;;;5.00;2.50;;;;;13.07;61.96;101168.94;5039122;28;47661;-62
2022/01/03 01:09:11;;;;;;;;;5.00;3.00;;;;;13.07;62.53;101166.28;5039190;28;45249;-63
2022/01/03 01:11:39;;;;;;;;;4.75;3.00;;;;;13.07;62.50;101166.28;5054650;28;45256;-61
2022/01/03 01:14:05;;;;;;;;;7.25;4.25;;;;;13.07;62.59;101166.28;5037834;28;48426;-64
2022/01/03 01:16:30;;;;;;;;;6.00;4.00;;;;;13.08;62.12;101167.16;5038063;28;70367;-64
2022/01/03 01:18:56;;;;;;;;;8.25;5.75;;;;;13.07;62.48;101162.84;5039153;28;45251;-63
2022/01/03 01:21:22;;;;;;;;;7.00;5.00;;;;;13.09;62.22;101160.91;5038461;28;62091;-64
2022/01/03 01:23:50;;;;;;;;;7.50;3.25;;;;;13.09;62.75;101168.81;5039081;28;45158;-65
2022/01/03 01:29:02;;;;;;;;;4.50;2.50;;;;;13.08;62.22;101159.22;5038824;28;45418;-62
2022/01/03 01:31:28;;;;;;;;;4.50;2.50;;;;;13.06;62.44;101164.63;5038645;28;48452;-64
2022/01/03 01:33:54;;;;;;;;;5.25;3.25;;;;;13.06;62.95;101163.81;5037004;28;62713;-63
2022/01/03 01:36:22;;;;;;;;;6.25;3.50;;;;;13.05;62.64;101162.16;5038640;28;46275;-63
2022/01/03 01:38:50;;;;;;;;;6.75;2.00;;;;;13.02;62.44;101165.88;5053982;28;48703;-65
2022/01/03 01:41:15;;;;;;;;;2.00;1.00;;;;;13.03;62.50;101161.44;5038947;28;45249;-63
2022/01/03 01:43:42;;;;;;;;;5.00;2.75;;;;;13.02;63.05;101155.31;5036569;28;69946;-63
2022/01/03 01:46:10;;;;;;;;;5.50;4.75;;;;;13.02;62.92;101162.41;5037288;28;45506;-63
2022/01/03 01:48:37;;;;;;;;;3.75;3.00;;;;;13.02;62.56;101170.31;5038736;28;45916;-63
2022/01/03 01:51:02;;;;;;;;;6.00;2.00;;;;;13.01;62.69;101173.94;5038855;28;45511;-62
2022/01/03 01:53:28;;;;;;;;;6.25;2.00;;;;;13.00;62.76;101169.63;5038855;28;45284;-62
2022/01/03 01:55:57;;;;;;;;;10.00;4.75;;;;;12.99;62.72;101168.78;5038024;28;46068;-62
2022/01/03 01:58:27;;;;;;;;;5.00;3.25;;;;;12.98;63.17;101153.09;5038252;28;45801;-64
2022/01/03 02:01:05;;;;;;;;;12.75;7.50;;;;;12.96;62.83;101165.59;5037813;28;45294;-65
2022/01/03 02:03:38;;;;;;;;;4.50;2.00;;;;;12.94;63.07;101164.91;5038138;28;45357;-62
2022/01/03 02:06:22;;;;;;;;;3.75;1.75;;;;;12.93;63.23;101155.31;5038413;28;45511;-63
2022/01/03 02:09:21;;;;;;;;;2.00;2.00;;;;;12.91;63.40;101160.75;5053011;28;45226;-66
2022/01/03 02:11:56;;;;;;;;;6.25;3.75;;;;;12.89;63.42;101160.03;5038390;28;45370;-63
2022/01/03 02:14:23;;;;;;;;;5.33;2.33;;;;;12.86;63.37;101161.13;5038342;28;45225;-62
2022/01/03 02:16:48;;;;;;;;;6.00;3.50;;;;;12.84;63.61;101163.06;5038045;28;46491;-66
2022/01/03 02:19:14;;;;;;;;;11.75;4.75;;;;;12.82;63.47;101170.28;5038176;28;45457;-63
2022/01/03 02:21:39;;;;;;;;;5.00;2.50;;;;;12.80;63.65;101168.75;5038308;28;45570;-63
2022/01/03 02:24:05;;;;;;;;;4.00;2.50;;;;;12.79;63.59;101165.28;5036545;28;52694;-64
2022/01/03 02:26:31;;;;;;;;;5.00;3.25;;;;;12.76;63.43;101160.25;5053518;28;46375;-64
2022/01/03 02:28:56;;;;;;;;;4.25;3.00;;;;;12.75;63.91;101155.97;5037823;28;45390;-63
2022/01/03 02:31:22;;;;;;;;;5.25;4.00;;;;;12.73;64.15;101150.84;5053575;28;45420;-63
2022/01/03 02:33:47;;;;;;;;;6.25;3.50;;;;;12.71;64.55;101162.50;5038019;28;45565;-63
2022/01/03 02:36:13;;;;;;;;;3.00;2.00;;;;;12.69;64.01;101159.16;5037546;28;45578;-64
2022/01/03 02:38:39;;;;;;;;;5.75;2.00;;;;;12.68;64.36;101160.94;5053277;28;45359;-63
2022/01/03 02:41:04;;;;;;;;;4.75;1.75;;;;;12.68;64.60;101178.59;5036852;28;68614;-64
2022/01/03 02:43:29;;;;;;;;;5.25;2.00;;;;;12.65;64.79;101173.59;5052322;28;66291;-66
2022/01/03 02:45:55;;;;;;;;;6.00;2.00;;;;;12.64;64.50;101174.56;5036712;28;66217;-65
2022/01/03 02:48:22;;;;;;;;;6.50;3.00;;;;;12.63;64.37;101172.88;5037514;28;45280;-63
2022/01/03 02:50:47;;;;;;;;;10.00;4.25;;;;;12.63;64.97;101163.16;5036897;28;45367;-66
2022/01/03 02:53:13;;;;;;;;;13.75;7.00;;;;;12.61;64.50;101160.66;5036342;28;45535;-63
2022/01/03 02:55:38;;;;;;;;;13.00;5.00;;;;;12.59;64.86;101159.97;5036310;28;66440;-63
2022/01/03 02:58:07;;;;;;;;;5.25;4.25;;;;;12.57;65.14;101161.06;5036398;28;69115;-63
2022/01/03 03:00:35;;;;;;;;;7.50;3.00;;;;;12.56;64.96;101160.22;5037674;28;45259;-63
2022/01/03 03:03:02;;;;;;;;;10.75;6.75;;;;;12.56;64.92;101162.88;5037607;28;45460;-62
2022/01/03 03:05:28;;;;;;;;;7.50;3.00;;;;;12.56;65.46;101162.88;5037296;28;46066;-64
2022/01/03 03:07:53;;;;;;;;;9.00;8.25;;;;;12.55;65.60;101161.19;5035417;28;61057;-62
2022/01/03 03:10:20;;;;;;;;;5.25;5.25;;;;;12.53;65.13;101163.13;5037429;28;45566;-62
2022/01/03 03:12:45;;;;;;;;;9.75;8.00;;;;;12.54;65.75;101162.16;5052632;28;46630;-64
2022/01/03 03:15:12;;;;;;;;;8.25;4.00;;;;;12.54;65.68;101156.03;5035382;28;45429;-62
2022/01/03 03:17:39;;;;;;;;;5.50;4.00;;;;;12.53;65.66;101154.38;5036711;28;45374;-63
2022/01/03 03:20:15;;;;;;;;;4.75;3.25;;;;;12.50;65.96;101142.31;5037363;28;45266;-64
2022/01/03 03:22:40;;;;;;;;;6.75;2.00;;;;;12.50;65.91;101133.56;5052598;28;45319;-64
2022/01/03 03:25:17;;;;;;;;;5.25;3.75;;;;;12.49;65.98;101124.81;5035782;28;46076;-63
2022/01/03 03:27:47;;;;;;;;;6.25;2.00;;;;;12.48;65.98;101133.69;5037135;28;45364;-63
2022/01/03 03:30:13;;;;;;;;;10.50;5.00;;;;;12.45;65.85;101126.88;5036440;28;45356;-64
2022/01/03 03:32:38;;;;;;;;;7.50;3.50;;;;;12.44;65.64;101135.78;5037014;28;45577;-61
2022/01/03 03:35:04;;;;;;;;;5.75;4.00;;;;;12.44;65.74;101132.31;5050996;28;72235;-65
2022/01/03 03:37:29;;;;;;;;;6.75;4.00;;;;;12.45;66.25;101141.88;5036620;28;45446;-65
2022/01/03 03:39:55;;;;;;;;;4.25;2.25;;;;;12.43;66.36;101134.13;5035991;28;67344;-64
2022/01/03 03:42:20;;;;;;;;;2.00;2.00;;;;;12.42;65.93;101140.34;5036063;28;65507;-64
2022/01/03 03:44:46;;;;;;;;;4.50;1.50;;;;;12.41;66.06;101130.78;5035644;28;74559;-63
2022/01/03 03:47:11;;;;;;;;;9.00;3.50;;;;;12.39;66.59;101134.50;5035942;28;69281;-63
2022/01/03 03:49:37;;;;;;;;;12.00;6.00;;;;;12.39;66.60;101126.59;5036045;28;65458;-65
2022/01/03 03:52:03;;;;;;;;;6.75;4.50;;;;;12.38;66.45;101122.28;5035790;28;67493;-65
2022/01/03 03:54:29;;;;;;;;;9.25;4.50;;;;;12.39;66.51;101132.72;5034684;28;46401;-63
2022/01/03 03:56:54;;;;;;;;;6.75;3.75;;;;;12.39;66.60;101122.16;5036791;28;45379;-62
2022/01/03 03:59:20;;;;;;;;;7.50;3.50;;;;;12.38;66.72;101117.00;5036854;28;45333;-63
2022/01/03 04:01:45;;;;;;;;;8.00;3.50;;;;;12.37;66.77;101124.09;5036704;28;45487;-63
2022/01/03 04:04:10;;;;;;;;;4.25;4.25;;;;;12.37;66.32;101123.25;5036512;28;46035;-63
2022/01/03 04:06:36;;;;;;;;;4.50;1.00;;;;;12.37;66.55;101113.56;5035489;28;72434;-61
2022/01/03 04:09:01;;;;;;;;;5.00;3.75;;;;;12.38;66.86;101112.59;5036892;28;45265;-64
2022/01/03 04:11:27;;;;;;;;;4.50;3.00;;;;;12.38;66.36;101103.84;5036580;28;45244;-64
2022/01/03 04:13:52;;;;;;;;;7.75;3.25;;;;;12.40;66.29;101101.91;5036311;28;45968;-63
2022/01/03 04:16:18;;;;;;;;;9.75;4.00;;;;;12.39;66.83;101094.97;5035342;28;69265;-66
2022/01/03 04:18:43;;;;;;;;;7.00;3.50;;;;;12.39;67.06;101094.97;5036394;28;45741;-64
2022/01/03 04:21:08;;;;;;;;;6.00;3.00;;;;;12.39;66.54;101093.19;5035684;28;61795;-65
2022/01/03 04:23:34;;;;;;;;;7.25;5.75;;;;;12.41;66.90;101091.25;5035272;28;74855;-64
2022/01/03 04:25:59;;;;;;;;;4.00;3.00;;;;;12.41;66.89;101088.63;5036290;28;45359;-64
2022/01/03 04:28:25;;;;;;;;;5.75;4.75;;;;;12.42;66.98;101084.16;5036276;28;45435;-61
2022/01/03 04:30:51;;;;;;;;;5.50;3.50;;;;;12.42;67.11;101078.88;5036241;28;45483;-61
2022/01/03 04:33:16;;;;;;;;;9.75;3.00;;;;;12.41;66.78;101069.31;5034888;28;46202;-63
2022/01/03 04:35:42;;;;;;;;;5.50;3.00;;;;;12.41;66.67;101074.59;5034116;28;47008;-62
2022/01/03 04:38:07;;;;;;;;;3.50;2.25;;;;;12.42;66.86;101078.88;5035464;28;61577;-62
2022/01/03 04:40:32;;;;;;;;;9.50;3.50;;;;;12.41;66.42;101077.22;5035270;28;66520;-66
2022/01/03 04:42:58;;;;;;;;;4.50;4.00;;;;;12.43;66.54;101080.56;5035836;28;45379;-64
2022/01/03 04:45:23;;;;;;;;;6.50;3.50;;;;;12.41;66.36;101066.69;5035238;28;65140;-62
2022/01/03 04:47:48;;;;;;;;;3.75;2.00;;;;;12.41;66.22;101071.94;5035347;28;60707;-66
2022/01/03 04:50:14;;;;;;;;;9.00;3.00;;;;;12.40;66.46;101072.91;5035232;28;65719;-62
2022/01/03 04:52:39;;;;;;;;;5.00;4.00;;;;;12.42;66.31;101078.88;5051200;28;46369;-64
2022/01/03 04:55:05;;;;;;;;;4.25;2.00;;;;;12.41;66.18;101071.94;5034650;28;65258;-64
2022/01/03 04:57:30;;;;;;;;;5.00;3.00;;;;;12.40;66.19;101073.75;5035820;28;45261;-63
2022/01/03 04:59:56;;;;;;;;;3.00;3.00;;;;;12.41;66.47;101071.94;5034966;28;70402;-62
2022/01/03 05:02:21;;;;;;;;;10.25;2.00;;;;;12.43;66.36;101075.28;5035530;28;52508;-62
2022/01/03 05:04:47;;;;;;;;;7.00;2.50;;;;;12.43;66.00;101072.66;5034816;28;69251;-63
2022/01/03 05:07:12;;;;;;;;;7.00;3.75;;;;;12.44;66.48;101074.31;5034782;28;45780;-64
2022/01/03 05:09:37;;;;;;;;;6.75;2.00;;;;;12.45;66.29;101071.53;5035077;28;61764;-64
2022/01/03 05:12:03;;;;;;;;;4.50;2.00;;;;;12.46;66.33;101075.00;5035471;28;45260;-65
2022/01/03 05:14:28;;;;;;;;;7.75;3.00;;;;;12.45;66.19;101063.63;5051016;28;45260;-63
2022/01/03 05:16:54;;;;;;;;;4.25;4.00;;;;;12.44;66.15;101063.78;5033813;28;55816;-64
2022/01/03 05:19:19;;;;;;;;;6.25;3.25;;;;;12.45;66.51;101070.72;5034552;28;70074;-63
2022/01/03 05:21:46;;;;;;;;;4.50;2.25;;;;;12.45;66.45;101062.81;5035433;28;45740;-62
2022/01/03 05:24:13;;;;;;;;;5.00;3.00;;;;;12.46;66.01;101057.38;5050902;28;45406;-64
2022/01/03 05:26:38;;;;;;;;;6.00;2.50;;;;;12.44;66.58;101050.59;5035676;28;45454;-63
2022/01/03 05:29:03;;;;;;;;;3.25;2.50;;;;;12.44;66.03;101056.72;5035263;28;46556;-63
2022/01/03 05:31:29;;;;;;;;;2.50;2.50;;;;;12.43;66.31;101057.69;5035347;28;46057;-62
2022/01/03 05:33:55;;;;;;;;;5.75;3.00;;;;;12.43;66.44;101062.97;5033956;28;45335;-62
2022/01/03 05:36:20;;;;;;;;;7.25;2.50;;;;;12.44;66.09;101066.41;5035188;28;45257;-63
2022/01/03 05:38:45;;;;;;;;;4.25;1.75;;;;;12.44;66.35;101061.13;5034711;28;68701;-63
2022/01/03 05:41:11;;;;;;;;;6.75;2.75;;;;;12.44;66.56;101059.34;5037637;28;67255;-63
2022/01/03 05:43:37;;;;;;;;;7.50;4.50;;;;;12.44;66.18;101064.63;5054078;28;45516;-63
2022/01/03 05:46:02;;;;;;;;;8.00;4.00;;;;;12.44;66.21;101058.50;5038480;28;45430;-64
2022/01/03 05:48:28;;;;;;;;;8.00;3.75;;;;;12.45;66.83;101066.25;5037759;28;65602;-63
2022/01/03 05:50:53;;;;;;;;;8.25;2.00;;;;;12.46;66.22;101067.09;5038469;28;45650;-62
2022/01/03 05:53:19;;;;;;;;;6.75;3.50;;;;;12.45;66.64;101057.53;5038301;28;45838;-62
2022/01/03 05:55:46;;;;;;;;;4.00;3.50;;;;;12.46;66.19;101056.56;5037878;28;50269;-64
2022/01/03 05:58:12;;;;;;;;;5.75;2.75;;;;;12.46;66.29;101053.94;5038419;28;45228;-62
2022/01/03 06:00:37;;;;;;;;;4.75;1.25;;;;;12.47;66.43;101061.69;5038068;28;48201;-63
2022/01/03 06:03:02;;;;;;;;;9.25;3.00;;;;;12.47;66.57;101061.69;5038197;28;45459;-64
2022/01/03 06:08:16;;;;;;;;;6.75;2.25;;;;;12.49;66.35;101056.28;5037253;28;45481;-63
2022/01/03 06:10:42;;;;;;;;;3.00;2.00;;;;;12.49;66.70;101060.72;5037317;28;73118;-64
2022/01/03 06:13:07;;;;;;;;;8.00;3.50;;;;;12.48;66.63;101052.00;5038004;28;45665;-62
2022/01/03 06:15:33;;;;;;;;;4.00;2.25;;;;;12.49;66.29;101052.81;5053587;28;45359;-63
2022/01/03 06:17:58;;;;;;;;;2.50;2.00;;;;;12.46;66.83;101049.47;5037812;28;45505;-63
2022/01/03 06:20:23;;;;;;;;;3.25;2.00;;;;;12.46;66.62;101064.47;5035591;28;75527;-65
2022/01/03 06:22:49;;;;;;;;;4.50;2.75;;;;;12.47;66.15;101063.50;5037859;28;45343;-63
2022/01/03 06:25:14;;;;;;;;;4.00;2.00;;;;;12.45;66.58;101057.53;5036876;28;69506;-64
2022/01/03 06:27:40;;;;;;;;;2.25;2.25;;;;;12.46;66.31;101061.84;5037742;28;45271;-64
2022/01/03 06:30:06;;;;;;;;;3.25;2.25;;;;;12.46;66.32;101051.31;5036970;28;60988;-63
2022/01/03 06:32:32;;;;;;;;;8.00;1.00;;;;;12.45;66.61;101049.63;5053261;28;45375;-63
2022/01/03 06:34:57;;;;;;;;;3.25;1.50;;;;;12.45;66.65;101047.00;5037802;28;45240;-63
2022/01/03 06:37:23;;;;;;;;;2.00;1.75;;;;;12.46;66.15;101059.19;5037847;28;45402;-63
2022/01/03 06:39:48;;;;;;;;;4.25;2.00;;;;;12.45;66.81;101047.81;5037372;28;47882;-64
2022/01/03 06:42:13;;;;;;;;;4.75;4.00;;;;;12.44;66.45;101045.31;5036714;28;70216;-64
2022/01/03 06:44:39;;;;;;;;;3.75;2.00;;;;;12.45;66.07;101041.72;5037076;28;61252;-61
2022/01/03 06:47:04;;;;;;;;;5.50;3.00;;;;;12.44;66.24;101045.31;5036669;28;70217;-64
2022/01/03 06:49:29;;;;;;;;;7.00;3.00;;;;;12.42;66.42;101032.31;5037183;28;55801;-63
2022/01/03 06:51:55;;;;;;;;;6.75;2.75;;;;;12.41;66.80;101030.63;5036349;28;62057;-61
2022/01/03 06:54:20;;;;;;;;;5.50;2.75;;;;;12.41;66.69;101035.06;5036608;28;67351;-64
2022/01/03 06:56:46;;;;;;;;;3.00;2.00;;;;;12.41;66.56;101046.44;5036524;28;69338;-62
2022/01/03 06:59:11;;;;;;;;;5.50;3.00;;;;;12.41;66.35;101037.69;5036690;28;62532;-64
2022/01/03 07:01:36;;;;;;;;;3.00;3.00;;;;;12.40;66.42;101034.25;5036286;28;71546;-62
2022/01/03 07:04:02;;;;;;;;;10.00;2.00;;;;;12.39;66.32;101034.34;5037381;28;45524;-64
2022/01/03 07:06:27;;;;;;;;;7.50;3.50;;;;;12.38;66.90;101037.97;5037082;28;45261;-65
2022/01/03 07:08:53;;;;;;;;;14.00;6.25;;;;;12.37;66.91;101028.38;5035853;28;72372;-62
2022/01/03 07:11:18;;;;;;;;;17.75;6.50;;;;;12.36;66.93;101027.56;5052506;28;45402;-63
2022/01/03 07:13:47;;;;;;;;;34.50;24.50;;;;;12.35;66.71;101027.69;5036472;28;64693;-62
2022/01/03 07:18:57;;;;;;;;;19.50;13.25;;;;;12.35;66.55;101023.28;5036948;28;45433;-66
2022/01/03 07:21:27;;;;;;;;;7.50;3.50;;;;;12.36;66.91;101017.03;5035776;28;45436;-62
2022/01/03 07:23:53;;;;;;;;;15.25;14.25;;;;;12.36;67.08;101016.19;5052425;28;45244;-62
2022/01/03 07:26:18;;;;;;;;;10.25;8.50;;;;;12.36;67.00;101024.09;5036891;28;45462;-64
2022/01/03 07:28:43;;;;;;;;;15.00;5.00;;;;;12.36;67.23;101013.53;5036082;28;71519;-65
2022/01/03 07:31:09;;;;;;;;;11.00;5.25;;;;;12.36;66.93;101011.75;5051257;28;73030;-64
2022/01/03 07:33:34;;;;;;;;;9.75;5.25;;;;;12.37;66.82;101017.84;5052531;28;45638;-63
2022/01/03 07:36:00;;;;;;;;;7.50;5.75;;;;;12.35;67.35;101020.63;5035968;28;65827;-64
2022/01/03 07:38:25;;;;;;;;;11.25;7.50;;;;;12.36;67.35;101021.44;5036699;28;46540;-65
2022/01/03 07:40:51;;;;;;;;;18.25;15.00;;;;;12.34;67.11;101013.69;5035214;28;45623;-63
2022/01/03 07:43:16;;;;;;;;;7.25;6.00;;;;;12.34;67.23;101018.13;5036678;28;45228;-63
2022/01/03 07:45:41;;;;;;;;;8.00;4.50;;;;;12.33;67.31;101009.41;5036751;28;45320;-64
2022/01/03 07:48:07;;;;;;;;;11.75;7.00;;;;;12.33;67.05;101006.75;5035632;28;75885;-64
2022/01/03 07:50:33;;;;;;;;;11.75;6.75;;;;;12.32;67.59;101011.19;5036306;28;51293;-64
2022/01/03 07:52:59;;;;;;;;;8.00;3.25;;;;;12.32;67.33;101011.19;5035518;28;45368;-63
2022/01/03 07:55:26;;;;;;;;;10.25;4.00;;;;;12.31;67.61;101020.06;5035256;28;45590;-62
2022/01/03 07:57:51;;;;;;;;;10.00;9.00;;;;;12.31;67.18;101014.78;5036427;28;45491;-63
2022/01/03 08:00:17;;;;;;;;;19.25;15.00;;;;;12.31;67.35;101009.50;5034747;28;55952;-63
2022/01/03 08:02:42;;;;;;;;;13.25;12.25;;;;;12.31;67.65;101003.44;5035951;28;45336;-61
2022/01/03 08:05:09;;;;;;;;;15.75;9.75;;;;;12.31;67.65;101006.06;5036394;28;45174;-61
2022/01/03 08:07:35;;;;;;;;;23.50;18.25;;;;;12.29;67.48;100998.28;5034189;28;45601;-62
2022/01/03 08:10:01;;;;;;;;;15.50;15.50;;;;;12.27;67.73;100992.31;5035249;28;45268;-62
2022/01/03 08:12:26;;;;;;;;;20.00;14.00;;;;;12.28;67.76;100998.44;5036786;28;45315;-60
2022/01/03 08:14:51;;;;;;;;;11.25;7.25;;;;;12.29;67.59;100990.38;5052181;28;45396;-63
2022/01/03 08:17:17;;;;;;;;;10.50;7.00;;;;;12.29;68.00;100994.81;5035526;28;70559;-63
2022/01/03 08:19:42;;;;;;;;;12.00;8.75;;;;;12.27;67.97;100992.31;5018414;28;45331;-66
2022/01/03 08:22:08;;;;;;;;;7.25;7.25;;;;;12.28;68.39;100999.25;5035319;28;59854;-64
2022/01/03 08:24:33;;;;;;;;;34.50;28.00;;;;;12.29;68.16;100985.09;5034916;28;45634;-65
2022/01/03 08:26:59;;;;;;;;;10.00;8.50;;;;;12.29;67.85;100989.56;5034553;28;48232;-63
2022/01/03 08:29:24;;;;;;;;;12.75;6.00;;;;;12.29;68.14;100995.63;5035972;28;45359;-64
2022/01/03 08:31:50;;;;;;;;;12.75;8.00;;;;;12.30;68.03;100993.84;5018399;28;45266;-65
2022/01/03 08:34:15;;;;;;;;;8.00;3.50;;;;;12.28;68.31;100978.16;5035176;28;66785;-65
2022/01/03 08:36:41;;;;;;;;;10.50;7.25;;;;;12.27;68.70;100973.88;5017875;28;45332;-63
2022/01/03 08:39:06;;;;;;;;;6.00;4.50;;;;;12.27;68.28;100983.59;5036358;28;45412;-65
2022/01/03 08:41:32;;;;;;;;;5.25;3.00;;;;;12.28;68.66;100988.72;5035074;28;45322;-63
2022/01/03 08:43:57;;;;;;;;;9.75;5.25;;;;;12.29;68.70;100986.91;5034760;28;45358;-66
2022/01/03 08:46:24;;;;;;;;;15.25;10.75;;;;;12.28;68.53;100983.44;5035993;28;46530;-65
2022/01/03 08:48:52;;;;;;;;;11.00;7.50;;;;;12.29;68.44;100985.09;5017376;28;45938;-65
2022/01/03 08:51:18;;;;;;;;;2.75;0.00;;;;;12.28;68.69;100978.16;5036305;28;45339;-64
2022/01/03 08:53:44;;;;;;;;;11.75;7.00;;;;;12.29;68.38;100979.84;5017868;28;45279;-63
2022/01/03 08:56:09;;;;;;;;;10.75;7.00;;;;;12.29;68.69;100974.56;5017471;28;45587;-66
2022/01/03 08:58:35;;;;;;;;;8.25;5.25;;;;;12.30;68.56;100973.59;5034235;28;45355;-62
2022/01/03 09:01:00;;;;;;;;;8.00;4.75;;;;;12.31;68.52;100988.44;5036052;28;45641;-66
2022/01/03 09:03:25;;;;;;;;;6.50;5.00;;;;;12.31;68.93;100977.91;5036154;28;45516;-63
2022/01/03 09:05:53;;;;;;;;;7.00;4.00;;;;;12.31;68.45;100983.16;5050301;28;75107;-63
2022/01/03 09:08:18;;;;;;;;;7.00;4.00;;;;;12.34;68.72;100976.81;5034532;28;45215;-64
2022/01/03 09:10:44;;;;;;;;;6.50;5.00;;;;;12.36;68.87;100974.88;5034773;28;64460;-64
2022/01/03 09:13:09;;;;;;;;;10.50;6.25;;;;;12.38;68.73;100983.47;5035145;28;60553;-65
2022/01/03 09:15:36;;;;;;;;;7.50;4.25;;;;;12.40;68.31;100978.03;5037805;28;58696;-65
2022/01/03 09:18:01;;;;;;;;;9.50;6.25;;;;;12.40;68.14;100978.03;5039208;28;45742;-64
2022/01/03 09:20:27;;;;;;;;;9.25;5.50;;;;;12.42;68.80;100981.38;5039466;28;45224;-65
2022/01/03 09:22:55;;;;;;;;;6.25;5.75;;;;;12.44;68.16;100989.97;5038314;28;55850;-64
2022/01/03 09:30:46;;;;;;;;;16.75;14.00;;;;;12.44;68.33;100961.84;5037946;28;45233;-64
2022/01/03 09:33:12;;;;;;;;;13.50;9.50;;;;;12.46;68.42;100961.69;5037256;28;45537;-63
2022/01/03 09:35:39;;;;;;;;;8.00;6.75;;;;;12.46;68.24;100966.97;5020527;28;47147;-62
2022/01/03 09:38:04;;;;;;;;;10.75;3.75;;;;;12.48;68.33;100957.13;5020812;28;45493;-63
2022/01/03 09:40:31;;;;;;;;;16.00;11.25;;;;;12.48;68.35;100951.84;5037545;28;45462;-63
2022/01/03 09:42:57;;;;;;;;;25.25;18.00;;;;;12.48;68.31;100951.84;5037650;28;45630;-65
2022/01/03 09:45:25;;;;;;;;;19.50;13.25;;;;;12.49;68.00;100950.88;5053970;28;46336;-66
2022/01/03 09:47:50;;;;;;;;;31.00;23.50;;;;;12.51;67.95;100943.66;5037465;28;45828;-67
2022/01/03 09:50:21;;;;;;;;;8.50;5.00;;;;;12.52;67.96;100950.59;5036941;28;60868;-65
2022/01/03 09:52:46;;;;;;;;;9.25;6.25;;;;;12.52;68.37;100952.38;5037615;28;45545;-64
2022/01/03 09:55:12;;;;;;;;;16.75;11.50;;;;;12.53;67.72;100947.00;5053840;28;45578;-65
2022/01/03 09:57:37;;;;;;;;;8.75;8.75;;;;;12.56;68.04;100946.72;5020212;28;58089;-64
2022/01/03 10:00:04;;;;;;;;;17.75;5.00;;;;;12.57;67.80;100932.56;5036596;28;64480;-63
2022/01/03 10:02:30;;;;;;;;;8.00;5.00;;;;;12.59;68.12;100943.81;5020591;28;45366;-63
2022/01/03 10:04:55;;;;;;;;;8.00;5.50;;;;;12.61;67.79;100941.84;5036766;28;46143;-64
2022/01/03 10:07:21;;;;;;;;;6.50;4.25;;;;;12.62;68.05;100942.69;5038178;28;45465;-63
2022/01/03 10:09:47;;;;;;;;;9.25;5.50;;;;;12.65;67.88;100949.50;5038354;28;45430;-64
2022/01/03 10:12:14;;;;;;;;;8.75;4.00;;;;;12.66;67.92;100937.97;5038380;28;45302;-64
2022/01/03 10:14:39;;;;;;;;;9.75;6.25;;;;;12.67;68.02;100934.38;5037906;28;46477;-63
2022/01/03 10:17:05;;;;;;;;;9.25;7.00;;;;;12.67;67.50;100945.72;5037646;28;45372;-62
2022/01/03 10:19:30;;;;;;;;;8.50;5.00;;;;;12.69;67.72;100942.97;5037701;28;45330;-64
2022/01/03 10:21:55;;;;;;;;;8.00;5.25;;;;;12.71;67.49;100931.31;5037419;28;55526;-63
2022/01/03 10:24:32;;;;;;;;;8.50;4.25;;;;;12.70;67.82;100937.53;5036762;28;65828;-64
2022/01/03 10:26:57;;;;;;;;;9.75;3.50;;;;;12.71;67.50;100926.03;5019690;28;45938;-63
2022/01/03 10:29:24;;;;;;;;;9.00;5.75;;;;;12.71;67.40;100931.31;5037914;28;45367;-64
2022/01/03 10:31:54;;;;;;;;;10.00;4.00;;;;;12.72;67.33;100927.69;5037876;28;45391;-63
2022/01/03 10:34:21;;;;;;;;;5.75;3.75;;;;;12.74;67.57;100933.66;5037457;28;45562;-63
2022/01/03 10:36:47;;;;;;;;;3.25;2.50;;;;;12.75;67.42;100921.28;5053119;28;45406;-64
2022/01/03 10:39:23;;;;;;;;;10.50;9.00;;;;;12.75;67.45;100918.66;5036570;28;45452;-64
2022/01/03 10:42:13;;;;;;;;;9.25;4.50;;;;;12.77;67.47;100919.34;5037820;28;45507;-67
2022/01/03 10:44:40;;;;;;;;;9.50;4.00;;;;;12.77;67.40;100909.66;5034767;28;45427;-61
2022/01/03 10:47:08;;;;;;;;;11.00;4.75;;;;;12.79;66.96;100909.50;5037580;28;45776;-64
2022/01/03 10:49:33;;;;;;;;;8.25;3.25;;;;;12.80;67.00;100905.06;5037741;28;45217;-64
2022/01/03 10:52:11;;;;;;;;;7.00;4.00;;;;;12.82;67.33;100911.84;5037610;28;45214;-65
2022/01/03 10:54:36;;;;;;;;;9.00;6.00;;;;;12.83;67.10;100892.41;5037204;28;45386;-62
2022/01/03 10:57:01;;;;;;;;;7.50;3.00;;;;;12.85;67.35;100887.00;5036462;28;68837;-65
2022/01/03 10:59:30;;;;;;;;;7.75;4.00;;;;;12.85;67.02;100879.91;5036256;28;45919;-62
2022/01/03 11:01:59;;;;;;;;;5.25;3.25;;;;;12.85;66.70;100887.84;5037314;28;45232;-64
2022/01/03 11:04:30;;;;;;;;;11.75;4.50;;;;;12.85;66.81;100879.91;5035767;28;46336;-63
2022/01/03 11:10:43;;;;;;;;;3.75;3.75;;;;;12.86;66.66;100871.03;5037044;28;45325;-64
2022/01/03 11:13:12;;;;;;;;;5.25;4.00;;;;;12.90;66.94;100861.88;5037313;28;45211;-65
2022/01/03 11:15:51;;;;;;;;;7.25;4.75;;;;;12.90;66.58;100858.41;5036343;28;45390;-61
2022/01/03 11:18:24;;;;;;;;;3.50;3.00;;;;;12.89;66.52;100848.84;5036896;28;45922;-65
2022/01/03 11:21:15;;;;;;;;;9.50;4.00;;;;;12.88;66.78;100842.72;5052379;28;45364;-62
2022/01/03 11:23:42;;;;;;;;;8.50;4.00;;;;;12.88;66.79;100844.53;5033537;28;45611;-63
2022/01/03 11:26:18;;;;;;;;;6.00;4.75;;;;;12.88;66.93;100837.44;5052181;28;46297;-62
2022/01/03 11:28:44;;;;;;;;;6.50;3.50;;;;;12.88;66.73;100832.16;5052197;28;45795;-65
2022/01/03 11:31:11;;;;;;;;;9.00;5.00;;;;;12.87;66.64;100841.06;5035708;28;45320;-64
2022/01/03 11:33:37;;;;;;;;;4.25;2.50;;;;;12.89;66.82;100830.38;5052190;28;45490;-63
2022/01/03 11:36:03;;;;;;;;;4.75;4.00;;;;;12.90;66.55;100838.13;5035074;28;45447;-64
2022/01/03 11:38:30;;;;;;;;;7.25;4.00;;;;;12.94;66.67;100822.03;5051347;28;45367;-65